Time;durP1;ratioP1;P1;durP2;ratioP2;P2;SDS_P1;SDS_P2;PMS_P1;PMS_P2;Temp;Humidity;BMP_temperature;BMP_pressure;BME280_temperature;BME280_humidity;BME280_pressure;Samples;Min_cycle;Max_cycle;Signal;HPM_P1;HPM_P2
2022/09/28 00:01:56;;;;;;;3.10;2.10;;;11.30;99.90;;;;;;5013631;28;20631;-78
2022/09/28 00:04:22;;;;;;;3.25;1.55;;;11.40;99.90;;;;;;5013553;28;20195;-79
2022/09/28 00:06:47;;;;;;;3.03;1.63;;;11.30;99.90;;;;;;5012496;28;20279;-78
2022/09/28 00:09:14;;;;;;;2.60;1.60;;;11.20;99.90;;;;;;5013508;28;20177;-78
2022/09/28 00:11:42;;;;;;;3.50;1.70;;;11.20;99.90;;;;;;5013863;28;20204;-78
2022/09/28 00:14:08;;;;;;;4.05;1.38;;;11.30;99.90;;;;;;5013807;28;20180;-78
2022/09/28 00:16:37;;;;;;;3.70;1.60;;;11.40;99.90;;;;;;5013700;28;20252;-78
2022/09/28 00:19:04;;;;;;;3.28;1.70;;;11.30;99.90;;;;;;5013645;28;20164;-79
2022/09/28 00:21:32;;;;;;;4.45;1.90;;;11.20;99.90;;;;;;5013275;28;20203;-78
2022/09/28 00:24:12;;;;;;;4.80;2.00;;;11.10;99.90;;;;;;5013459;28;20184;-78
2022/09/28 00:26:47;;;;;;;4.15;1.90;;;10.90;99.90;;;;;;5013566;28;20168;-78
2022/09/28 00:29:22;;;;;;;10.77;3.53;;;10.70;99.90;;;;;;5013461;28;20171;-77
2022/09/28 00:31:49;;;;;;;5.50;2.78;;;10.90;99.90;;;;;;5013340;28;20246;-78
2022/09/28 00:34:15;;;;;;;2.50;1.98;;;11.00;99.90;;;;;;5013085;28;20188;-78
2022/09/28 00:36:44;;;;;;;4.25;2.33;;;11.10;99.90;;;;;;5013168;28;20555;-79
2022/09/28 00:39:11;;;;;;;7.03;2.83;;;11.10;99.90;;;;;;5013541;28;20247;-78
2022/09/28 00:41:37;;;;;;;2.83;2.42;;;11.10;99.90;;;;;;5012780;28;20169;-78
2022/09/28 00:44:21;;;;;;;3.13;2.22;;;11.20;99.90;;;;;;5011499;28;20706;-79
2022/09/28 00:46:49;;;;;;;4.38;2.08;;;11.10;99.90;;;;;;5012922;28;20220;-78
2022/09/28 00:49:18;;;;;;;5.80;2.42;;;11.20;99.90;;;;;;5011701;28;20218;-78
2022/09/28 00:51:46;;;;;;;2.40;2.10;;;11.30;99.90;;;;;;5012888;28;20172;-78
2022/09/28 00:54:13;;;;;;;2.60;2.35;;;11.30;99.90;;;;;;5012449;28;20196;-79
2022/09/28 00:56:43;;;;;;;2.75;1.83;;;11.20;99.90;;;;;;5012789;28;20525;-78
2022/09/28 00:59:09;;;;;;;6.00;2.35;;;11.20;99.90;;;;;;5012758;28;20510;-79
2022/09/28 01:01:36;;;;;;;2.63;1.98;;;11.30;99.90;;;;;;5012734;28;20183;-79
2022/09/28 01:04:03;;;;;;;5.43;2.10;;;11.30;99.90;;;;;;5012871;28;20287;-78
2022/09/28 01:06:32;;;;;;;2.10;1.80;;;11.30;99.90;;;;;;5011312;28;20176;-79
2022/09/28 01:09:01;;;;;;;3.75;2.30;;;11.30;99.90;;;;;;5012562;28;20240;-79
2022/09/28 01:11:34;;;;;;;2.72;2.13;;;11.30;99.90;;;;;;5012681;28;20192;-78
2022/09/28 01:14:00;;;;;;;4.25;2.60;;;11.30;99.90;;;;;;5012646;28;20196;-78
2022/09/28 01:16:55;;;;;;;1.90;1.80;;;11.40;99.90;;;;;;5012552;28;20171;-79
2022/09/28 01:19:33;;;;;;;2.40;2.17;;;11.30;99.90;;;;;;5011370;28;20554;-79
2022/09/28 01:22:11;;;;;;;2.70;2.45;;;11.20;99.90;;;;;;5012618;28;20234;-78
2022/09/28 01:24:46;;;;;;;3.00;2.35;;;11.10;99.90;;;;;;5012435;28;20242;-78
2022/09/28 01:27:19;;;;;;;2.30;2.10;;;11.10;99.90;;;;;;5012251;28;20640;-78
2022/09/28 01:30:00;;;;;;;3.85;1.80;;;11.10;99.90;;;;;;5010986;28;20706;-78
2022/09/28 01:32:50;;;;;;;4.95;3.05;;;11.10;99.90;;;;;;5012836;28;20212;-79
2022/09/28 01:35:25;;;;;;;4.15;2.47;;;11.10;99.90;;;;;;5012428;28;20246;-78
2022/09/28 01:38:01;;;;;;;8.95;1.95;;;11.00;99.90;;;;;;5012454;28;20217;-78
2022/09/28 01:40:29;;;;;;;3.20;2.15;;;11.00;99.90;;;;;;5013080;28;20686;-78
2022/09/28 01:43:03;;;;;;;3.65;1.83;;;11.10;99.90;;;;;;5016534;28;20210;-79
2022/09/28 01:45:34;;;;;;;7.72;1.73;;;11.10;99.90;;;;;;5016224;28;20198;-79
2022/09/28 01:48:04;;;;;;;1.80;1.48;;;11.20;99.90;;;;;;5016234;28;20164;-79
2022/09/28 01:50:39;;;;;;;3.80;1.55;;;11.30;99.90;;;;;;5016047;28;20161;-78
2022/09/28 01:53:32;;;;;;;4.35;1.48;;;11.40;99.90;;;;;;5015776;28;20171;-79
2022/09/28 01:56:06;;;;;;;5.68;1.65;;;11.10;99.90;;;;;;5015911;28;20196;-79
2022/09/28 01:58:38;;;;;;;3.55;1.65;;;11.20;99.90;;;;;;5016246;28;20613;-78
2022/09/28 02:01:10;;;;;;;6.53;1.70;;;11.10;99.90;;;;;;5016383;28;20203;-80
2022/09/28 02:03:47;;;;;;;4.05;1.40;;;11.20;99.90;;;;;;5016080;28;20157;-80
2022/09/28 02:06:23;;;;;;;2.63;1.63;;;11.30;99.90;;;;;;5015885;28;20199;-79
2022/09/28 02:08:55;;;;;;;2.50;2.30;;;11.40;99.90;;;;;;5015779;28;20222;-79
2022/09/28 02:11:21;;;;;;;2.58;1.65;;;11.40;99.90;;;;;;5015766;28;20173;-78
2022/09/28 02:14:09;;;;;;;2.10;1.63;;;11.30;99.90;;;;;;5015516;28;20165;-79
2022/09/28 02:16:46;;;;;;;5.10;1.90;;;11.20;99.90;;;;;;5015617;28;20172;-78
2022/09/28 02:19:16;;;;;;;2.90;2.08;;;11.10;99.90;;;;;;5015604;28;20169;-79
2022/09/28 02:21:57;;;;;;;3.83;1.70;;;11.00;99.90;;;;;;5015291;28;20610;-79
2022/09/28 02:24:52;;;;;;;5.35;1.70;;;11.00;99.90;;;;;;5015407;28;20185;-79
2022/09/28 02:27:47;;;;;;;8.05;2.28;;;11.00;99.90;;;;;;5015861;28;20176;-79
2022/09/28 02:30:13;;;;;;;7.40;2.22;;;11.00;99.90;;;;;;5015569;28;20195;-79
2022/09/28 02:32:43;;;;;;;2.47;1.90;;;11.00;99.90;;;;;;5014509;28;20211;-79
2022/09/28 02:35:16;;;;;;;2.42;1.77;;;10.90;99.90;;;;;;5015778;28;20238;-78
2022/09/28 02:37:43;;;;;;;6.38;2.00;;;10.90;99.90;;;;;;5015792;28;20168;-78
2022/09/28 02:40:17;;;;;;;8.43;1.90;;;10.70;99.90;;;;;;5015533;28;20551;-78
2022/09/28 02:42:51;;;;;;;2.70;1.92;;;10.70;99.90;;;;;;5015681;28;20642;-78
2022/09/28 02:45:47;;;;;;;6.70;1.77;;;10.70;99.90;;;;;;5016014;28;20255;-79
2022/09/28 02:48:25;;;;;;;1.85;1.55;;;10.70;99.90;;;;;;5015643;28;20697;-78
2022/09/28 02:50:58;;;;;;;3.22;1.42;;;10.70;99.90;;;;;;5014509;28;20594;-78
2022/09/28 02:53:48;;;;;;;2.25;1.60;;;10.70;99.90;;;;;;5014045;28;20165;-79
2022/09/28 02:56:33;;;;;;;2.80;2.00;;;10.60;99.90;;;;;;5015558;28;20223;-77
2022/09/28 02:59:09;;;;;;;6.60;1.98;;;10.70;99.90;;;;;;5015346;28;20210;-78
2022/09/28 03:01:54;;;;;;;5.35;1.48;;;10.70;99.90;;;;;;5015000;28;20200;-78
2022/09/28 03:04:35;;;;;;;3.67;1.35;;;10.80;99.90;;;;;;5014773;28;20251;-78
2022/09/28 03:07:10;;;;;;;3.53;1.30;;;10.70;99.90;;;;;;5015081;28;20635;-78
2022/09/28 03:09:43;;;;;;;1.83;1.35;;;10.50;99.90;;;;;;5029521;28;20247;-78
2022/09/28 03:12:12;;;;;;;4.47;1.33;;;10.50;99.90;;;;;;5014813;28;20169;-78
2022/09/28 03:14:38;;;;;;;1.58;1.30;;;10.50;99.90;;;;;;5014841;28;20240;-78
2022/09/28 03:17:04;;;;;;;6.00;1.58;;;10.60;99.90;;;;;;5014635;28;20169;-78
2022/09/28 03:19:32;;;;;;;3.22;1.80;;;10.70;99.90;;;;;;5014393;28;20191;-78
2022/09/28 03:21:58;;;;;;;3.50;2.72;;;10.80;99.90;;;;;;5013963;28;20164;-78
2022/09/28 03:24:24;;;;;;;4.28;2.28;;;10.90;99.90;;;;;;5014588;28;20193;-79
2022/09/28 03:26:49;;;;;;;3.50;1.90;;;10.90;99.90;;;;;;5014355;28;20243;-79
2022/09/28 03:29:15;;;;;;;4.10;1.88;;;11.00;99.90;;;;;;5014254;28;20355;-79
2022/09/28 03:31:40;;;;;;;2.13;1.45;;;10.90;99.90;;;;;;5014388;28;20684;-78
2022/09/28 03:34:06;;;;;;;1.65;1.55;;;10.80;99.90;;;;;;5014139;28;20192;-79
2022/09/28 03:36:31;;;;;;;2.55;1.52;;;10.70;99.90;;;;;;5013403;28;20639;-79
2022/09/28 03:38:58;;;;;;;5.28;1.83;;;10.80;99.90;;;;;;5013024;28;20180;-78
2022/09/28 03:41:24;;;;;;;1.50;1.40;;;10.80;99.90;;;;;;5012863;28;20201;-78
2022/09/28 03:43:49;;;;;;;4.65;1.48;;;10.70;99.90;;;;;;5014016;28;20629;-78
2022/09/28 03:46:15;;;;;;;10.98;2.00;;;10.60;99.90;;;;;;5014211;28;20200;-78
2022/09/28 03:48:40;;;;;;;3.28;1.52;;;10.50;99.90;;;;;;5014345;28;20192;-78
2022/09/28 03:51:09;;;;;;;3.33;2.00;;;10.60;99.90;;;;;;5014339;28;20208;-78
2022/09/28 03:53:36;;;;;;;1.92;1.35;;;10.40;99.90;;;;;;5014084;28;20161;-83
2022/09/28 03:56:11;;;;;;;2.60;1.58;;;10.50;99.90;;;;;;5012767;28;20179;-79
2022/09/28 03:58:37;;;;;;;1.35;1.25;;;10.30;99.90;;;;;;5013816;28;20218;-78
2022/09/28 04:01:08;;;;;;;4.05;2.03;;;10.30;99.90;;;;;;5014233;28;20208;-79
2022/09/28 04:03:34;;;;;;;2.95;1.40;;;10.40;99.90;;;;;;5013531;28;20164;-78
2022/09/28 04:06:00;;;;;;;1.52;1.42;;;10.60;99.90;;;;;;5013980;28;20222;-78
2022/09/28 04:08:26;;;;;;;1.25;1.15;;;10.60;99.90;;;;;;5013722;28;20243;-78
2022/09/28 04:10:55;;;;;;;2.90;1.10;;;10.80;99.90;;;;;;5013570;28;20200;-79
2022/09/28 04:13:21;;;;;;;1.30;1.20;;;10.70;99.90;;;;;;5013835;28;20167;-78
2022/09/28 04:15:55;;;;;;;2.78;1.50;;;10.60;99.90;;;;;;5013557;28;20196;-78
2022/09/28 04:18:21;;;;;;;1.67;1.40;;;10.40;99.90;;;;;;5012210;28;20508;-78
2022/09/28 04:20:47;;;;;;;1.45;1.10;;;10.20;99.90;;;;;;5013452;28;20211;-78
2022/09/28 04:23:15;;;;;;;2.45;1.70;;;10.20;99.90;;;;;;5012286;28;20611;-77
2022/09/28 04:25:45;;;;;;;2.70;1.40;;;10.30;99.90;;;;;;5013574;28;20195;-78
2022/09/28 04:30:55;;;;;;;1.70;1.35;;;10.40;99.90;;;;;;5013266;28;20275;-78
2022/09/28 04:33:21;;;;;;;2.47;1.42;;;10.20;99.90;;;;;;5013428;28;20247;-78
2022/09/28 04:35:46;;;;;;;2.88;1.42;;;10.10;99.90;;;;;;5013162;28;20254;-78
2022/09/28 04:38:12;;;;;;;3.47;1.63;;;10.00;99.90;;;;;;5012998;28;20226;-80
2022/09/28 04:40:37;;;;;;;1.58;1.48;;;10.10;99.90;;;;;;5012940;28;20419;-78
2022/09/28 04:43:03;;;;;;;2.03;1.88;;;10.00;99.90;;;;;;5013356;28;20165;-78
2022/09/28 04:45:29;;;;;;;3.20;1.92;;;9.80;99.90;;;;;;5013335;28;20226;-78
2022/09/28 04:47:54;;;;;;;4.10;2.28;;;9.80;99.90;;;;;;5013301;28;20176;-77
2022/09/28 04:50:20;;;;;;;3.90;1.90;;;9.90;99.90;;;;;;5012225;28;20598;-79
2022/09/28 04:52:46;;;;;;;2.55;1.70;;;10.00;99.90;;;;;;5012837;28;20523;-80
2022/09/28 04:55:13;;;;;;;2.60;1.60;;;9.90;99.90;;;;;;5011520;28;20549;-81
2022/09/28 04:57:39;;;;;;;1.50;1.40;;;10.00;99.90;;;;;;5013166;28;20226;-78
2022/09/28 05:00:05;;;;;;;1.95;1.40;;;9.90;99.90;;;;;;5012754;28;20191;-79
2022/09/28 05:02:31;;;;;;;1.52;1.20;;;10.00;99.90;;;;;;5013028;28;20680;-79
2022/09/28 05:04:57;;;;;;;1.52;1.42;;;10.10;99.90;;;;;;5012508;28;20247;-79
2022/09/28 05:07:25;;;;;;;3.85;1.50;;;10.00;99.90;;;;;;5011315;28;20173;-80
2022/09/28 05:09:51;;;;;;;3.30;1.80;;;10.10;99.90;;;;;;5013272;28;20172;-79
2022/09/28 05:12:17;;;;;;;3.50;1.98;;;10.20;99.90;;;;;;5012998;28;20176;-78
2022/09/28 05:14:42;;;;;;;2.20;2.00;;;10.30;99.90;;;;;;5012447;28;20296;-78
2022/09/28 05:17:09;;;;;;;3.60;2.20;;;10.30;99.90;;;;;;5010932;28;20185;-78
2022/09/28 05:19:34;;;;;;;8.68;2.53;;;10.30;99.90;;;;;;5012959;28;20168;-78
2022/09/28 05:22:04;;;;;;;4.47;2.50;;;10.20;99.90;;;;;;5012788;28;20176;-78
2022/09/28 05:24:30;;;;;;;3.10;2.00;;;10.20;99.90;;;;;;5012738;28;20198;-77
2022/09/28 05:26:56;;;;;;;2.80;2.47;;;10.30;99.90;;;;;;5012888;28;20635;-77
2022/09/28 05:29:22;;;;;;;3.33;2.45;;;10.30;99.90;;;;;;5012668;28;20211;-77
2022/09/28 05:31:48;;;;;;;5.07;2.67;;;10.50;99.90;;;;;;5012398;28;20172;-78
2022/09/28 05:34:13;;;;;;;10.98;2.60;;;10.40;99.90;;;;;;5010935;28;20192;-77
2022/09/28 05:36:41;;;;;;;3.13;2.60;;;10.40;99.90;;;;;;5012491;28;20187;-78
2022/09/28 05:39:08;;;;;;;7.63;2.95;;;10.20;99.90;;;;;;5012619;28;20176;-80
2022/09/28 05:41:34;;;;;;;8.38;3.10;;;10.10;99.90;;;;;;5012352;28;20612;-78
2022/09/28 05:44:00;;;;;;;6.15;3.45;;;10.20;99.90;;;;;;5011310;28;20203;-78
2022/09/28 05:46:25;;;;;;;4.70;3.08;;;10.20;99.90;;;;;;5012652;28;20177;-78
2022/09/28 05:48:51;;;;;;;5.30;3.70;;;10.20;99.90;;;;;;5012689;28;20627;-79
2022/09/28 05:51:17;;;;;;;4.00;3.63;;;10.20;99.90;;;;;;5012834;28;20172;-78
2022/09/28 05:53:43;;;;;;;10.30;3.97;;;10.10;99.90;;;;;;5012500;28;20173;-78
2022/09/28 05:56:09;;;;;;;5.30;4.35;;;10.10;99.90;;;;;;5012660;28;20261;-80
2022/09/28 05:58:34;;;;;;;6.68;4.63;;;10.10;99.90;;;;;;5012128;28;20176;-78
2022/09/28 06:01:00;;;;;;;7.55;4.68;;;10.30;99.90;;;;;;5012226;28;20200;-78
2022/09/28 06:03:26;;;;;;;8.82;4.97;;;10.50;99.90;;;;;;5012709;28;20161;-78
2022/09/28 06:05:51;;;;;;;6.03;4.93;;;10.40;99.90;;;;;;5012579;28;20543;-79
2022/09/28 06:08:17;;;;;;;5.53;4.90;;;10.40;99.90;;;;;;5013050;28;20685;-79
2022/09/28 06:10:43;;;;;;;8.85;5.80;;;10.50;99.90;;;;;;5012938;28;20252;-79
2022/09/28 06:13:09;;;;;;;12.10;5.72;;;10.50;99.90;;;;;;5021612;28;20274;-80
2022/09/28 06:15:36;;;;;;;7.65;5.80;;;10.40;99.90;;;;;;5035752;28;20197;-80
2022/09/28 06:18:04;;;;;;;8.00;4.75;;;10.30;99.90;;;;;;5035324;28;20169;-79
2022/09/28 06:20:33;;;;;;;8.05;5.65;;;10.30;99.90;;;;;;5034872;28;20281;-78
2022/09/28 06:22:59;;;;;;;11.05;5.20;;;10.40;99.90;;;;;;5034983;28;20183;-79
2022/09/28 06:25:26;;;;;;;9.73;4.88;;;10.40;99.90;;;;;;5036726;28;20196;-79
2022/09/28 06:27:57;;;;;;;6.10;5.03;;;10.60;99.90;;;;;;5039360;28;20541;-79
2022/09/28 06:30:25;;;;;;;10.18;6.00;;;10.60;99.90;;;;;;5038703;28;20181;-79
2022/09/28 06:32:53;;;;;;;10.25;6.82;;;10.70;99.90;;;;;;5029206;28;20169;-78
2022/09/28 06:35:20;;;;;;;15.35;6.47;;;10.70;99.90;;;;;;5027717;28;20517;-79
2022/09/28 06:37:46;;;;;;;6.32;5.78;;;10.60;99.90;;;;;;5024324;28;20173;-78
2022/09/28 06:40:11;;;;;;;13.43;6.05;;;10.60;99.90;;;;;;5020942;28;20305;-78
2022/09/28 06:42:37;;;;;;;10.13;5.53;;;10.50;99.90;;;;;;5009274;28;20209;-78
2022/09/28 06:45:03;;;;;;;13.52;6.78;;;10.70;99.90;;;;;;5013415;28;20196;-78
2022/09/28 06:47:30;;;;;;;8.15;6.47;;;10.80;99.90;;;;;;5012316;28;20181;-79
2022/09/28 06:49:56;;;;;;;10.35;6.93;;;10.80;99.90;;;;;;5009686;28;20185;-78
2022/09/28 06:52:22;;;;;;;6.05;5.55;;;10.70;99.90;;;;;;5015751;28;20173;-78
2022/09/28 06:54:47;;;;;;;9.50;5.90;;;10.90;99.90;;;;;;4996133;28;20246;-78
2022/09/28 06:57:13;;;;;;;15.50;5.85;;;10.70;99.90;;;;;;4994572;28;20177;-78
2022/09/28 06:59:38;;;;;;;16.25;6.63;;;10.70;99.90;;;;;;4994541;28;20581;-78
2022/09/28 07:02:04;;;;;;;8.32;6.00;;;10.70;99.90;;;;;;5010014;28;20260;-78
2022/09/28 07:04:30;;;;;;;6.15;5.53;;;10.70;99.90;;;;;;4993240;28;20203;-78
2022/09/28 07:06:56;;;;;;;13.35;6.85;;;10.60;99.90;;;;;;4993814;28;20174;-78
2022/09/28 07:09:21;;;;;;;8.95;6.53;;;10.50;99.90;;;;;;4995312;28;20596;-78
2022/09/28 07:11:47;;;;;;;10.70;6.78;;;10.70;99.90;;;;;;4993820;28;20177;-79
2022/09/28 07:14:13;;;;;;;10.27;5.80;;;10.60;99.90;;;;;;4994853;28;20185;-79
2022/09/28 07:16:38;;;;;;;14.18;6.93;;;10.60;99.90;;;;;;4995469;28;20177;-78
2022/09/28 07:19:05;;;;;;;8.60;6.45;;;10.80;99.90;;;;;;4995492;28;20719;-79
2022/09/28 07:21:31;;;;;;;6.40;5.80;;;10.80;99.90;;;;;;4995290;28;20209;-79
2022/09/28 07:23:56;;;;;;;9.40;5.95;;;10.90;99.90;;;;;;4996203;28;20689;-78
2022/09/28 07:26:22;;;;;;;14.90;6.18;;;11.00;99.90;;;;;;4995359;28;20211;-79
2022/09/28 07:28:48;;;;;;;7.45;5.60;;;11.20;99.90;;;;;;4994739;28;20249;-78
2022/09/28 07:31:13;;;;;;;9.77;6.10;;;11.40;99.90;;;;;;4994108;28;20962;-78
2022/09/28 07:33:39;;;;;;;6.97;6.05;;;11.30;99.90;;;;;;4994252;28;20188;-78
2022/09/28 07:36:06;;;;;;;7.05;5.60;;;11.40;99.90;;;;;;5008764;28;20203;-79
2022/09/28 07:38:34;;;;;;;17.20;6.40;;;11.20;99.90;;;;;;4993917;28;20173;-78
2022/09/28 07:41:13;;;;;;;17.70;7.10;;;11.30;99.90;;;;;;4994469;28;20197;-79
2022/09/28 07:43:40;;;;;;;19.10;5.70;;;11.60;99.90;;;;;;4994036;28;20157;-79
2022/09/28 07:46:12;;;;;;;7.80;5.93;;;11.70;99.90;;;;;;4992638;28;20648;-81
2022/09/28 07:48:42;;;;;;;8.90;5.38;;;11.70;99.90;;;;;;4994392;28;20184;-80
2022/09/28 07:51:09;;;;;;;17.15;5.88;;;11.80;99.90;;;;;;4992861;28;20173;-79
2022/09/28 07:53:37;;;;;;;8.35;5.35;;;11.90;99.90;;;;;;4992418;28;20256;-79
2022/09/28 07:56:08;;;;;;;11.93;4.95;;;12.10;99.90;;;;;;5001868;28;20642;-79
2022/09/28 07:58:38;;;;;;;9.27;5.13;;;12.10;99.90;;;;;;5008968;28;20184;-79
2022/09/28 08:01:16;;;;;;;10.88;5.85;;;12.10;99.90;;;;;;5011855;28;20286;-79
2022/09/28 08:03:44;;;;;;;11.80;5.15;;;12.10;99.90;;;;;;5013827;28;20266;-79
2022/09/28 08:06:11;;;;;;;8.25;4.90;;;12.00;99.90;;;;;;4999999;28;20181;-79
2022/09/28 08:08:42;;;;;;;9.63;4.90;;;12.00;99.90;;;;;;4993707;28;20208;-85
2022/09/28 08:11:09;;;;;;;10.95;4.70;;;12.10;99.90;;;;;;4994037;28;20201;-83
2022/09/28 08:13:36;;;;;;;10.25;4.20;;;12.20;99.90;;;;;;4992800;28;20557;-78
2022/09/28 08:16:02;;;;;;;7.80;4.50;;;12.20;99.90;;;;;;5005373;28;20247;-87
2022/09/28 08:18:28;;;;;;;7.22;4.72;;;12.10;99.90;;;;;;5012903;28;20165;-78
2022/09/28 08:23:38;;;;;;;5.70;5.10;;;12.50;99.90;;;;;;5012420;28;20322;-78
2022/09/28 08:26:05;;;;;;;13.30;5.30;;;12.60;99.90;;;;;;5012324;28;20188;-78
2022/09/28 08:28:32;;;;;;;8.43;4.25;;;12.60;99.90;;;;;;5012886;28;20164;-79
2022/09/28 08:31:00;;;;;;;13.02;4.93;;;12.70;99.90;;;;;;5011414;28;20172;-78
2022/09/28 08:33:26;;;;;;;10.25;4.68;;;12.80;99.90;;;;;;5013120;28;20164;-79
2022/09/28 08:36:00;;;;;;;8.77;4.60;;;12.90;99.90;;;;;;5012292;28;20216;-78
2022/09/28 08:38:28;;;;;;;7.75;4.72;;;12.90;99.90;;;;;;5012580;28;20639;-77
2022/09/28 08:41:24;;;;;;;11.73;4.82;;;13.00;99.90;;;;;;5013120;28;20697;-77
2022/09/28 08:44:15;;;;;;;10.90;3.72;;;13.00;99.90;;;;;;5013589;28;20218;-78
2022/09/28 08:46:52;;;;;;;4.63;3.88;;;13.00;99.90;;;;;;5012782;28;20630;-78
2022/09/28 08:49:34;;;;;;;10.57;3.72;;;13.10;99.90;;;;;;5012267;28;20172;-77
2022/09/28 08:52:04;;;;;;;13.82;3.70;;;13.20;99.90;;;;;;5012700;28;20176;-78
2022/09/28 08:54:39;;;;;;;8.63;3.72;;;13.20;99.90;;;;;;5012763;28;20666;-77
2022/09/28 08:57:23;;;;;;;11.20;6.07;;;13.20;99.90;;;;;;5012595;28;20184;-78
2022/09/28 08:59:52;;;;;;;17.83;5.95;;;13.30;99.90;;;;;;5011547;28;20206;-78
2022/09/28 09:02:30;;;;;;;7.18;4.03;;;13.40;99.90;;;;;;4999000;28;20177;-78
2022/09/28 09:04:57;;;;;;;3.58;3.22;;;13.60;99.90;;;;;;4992544;28;20647;-78
2022/09/28 09:07:31;;;;;;;15.10;4.32;;;13.80;99.90;;;;;;4993375;28;20165;-78
2022/09/28 09:10:18;;;;;;;9.85;5.20;;;13.90;99.90;;;;;;4992959;28;20168;-77
2022/09/28 09:12:52;;;;;;;12.00;5.95;;;14.10;99.90;;;;;;5010056;28;20376;-78
2022/09/28 09:15:23;;;;;;;4.95;3.08;;;14.10;99.90;;;;;;5012958;28;20250;-78
2022/09/28 09:18:15;;;;;;;11.05;3.47;;;14.00;99.90;;;;;;5012455;28;20247;-78
2022/09/28 09:20:55;;;;;;;9.40;3.13;;;14.10;99.90;;;;;;5012287;28;20212;-79
2022/09/28 09:23:38;;;;;;;5.25;2.58;;;14.00;99.90;;;;;;5012150;28;20203;-78
2022/09/28 09:26:19;;;;;;;3.42;2.08;;;14.00;99.90;;;;;;5013028;28;20168;-78
2022/09/28 09:29:00;;;;;;;5.53;3.00;;;13.90;99.90;;;;;;5012053;28;20171;-78
2022/09/28 09:31:49;;;;;;;6.60;3.50;;;14.10;99.90;;;;;;5013447;28;20180;-77
2022/09/28 09:34:31;;;;;;;9.30;2.92;;;14.10;99.90;;;;;;5013024;28;20184;-77
2022/09/28 09:37:18;;;;;;;12.90;3.20;;;14.20;99.90;;;;;;5011389;28;20550;-77
2022/09/28 09:39:55;;;;;;;8.18;3.75;;;14.00;99.90;;;;;;5011658;28;20195;-77
2022/09/28 09:42:27;;;;;;;2.95;2.20;;;14.00;99.90;;;;;;5011601;28;20186;-77
2022/09/28 09:45:20;;;;;;;9.98;2.15;;;14.10;99.90;;;;;;5011545;28;20952;-77
2022/09/28 09:47:59;;;;;;;11.35;2.75;;;14.30;99.90;;;;;;5011591;28;20179;-78
2022/09/28 09:50:45;;;;;;;7.65;2.22;;;14.40;99.90;;;;;;5012561;28;20311;-77
2022/09/28 09:53:27;;;;;;;18.10;7.20;;;14.30;99.90;;;;;;5010759;28;20173;-81
2022/09/28 09:55:57;;;;;;;18.98;3.85;;;14.30;99.90;;;;;;5012600;28;20207;-82
2022/09/28 09:58:32;;;;;;;6.22;2.13;;;14.30;99.90;;;;;;5013294;28;20291;-80
2022/09/28 10:01:06;;;;;;;7.32;2.88;;;14.40;99.90;;;;;;5012130;28;20211;-78
2022/09/28 10:03:35;;;;;;;10.02;2.03;;;14.60;99.90;;;;;;5007114;28;20173;-84
2022/09/28 10:06:11;;;;;;;5.10;1.70;;;14.60;99.90;;;;;;5011907;28;20181;-81
2022/09/28 10:08:43;;;;;;;5.03;1.80;;;14.60;99.90;;;;;;4995255;28;20260;-82
2022/09/28 10:11:24;;;;;;;4.93;2.10;;;14.50;99.90;;;;;;4994874;28;20165;-80
2022/09/28 10:13:50;;;;;;;4.72;1.38;;;14.60;99.90;;;;;;4995807;28;20672;-79
2022/09/28 10:16:17;;;;;;;4.60;1.27;;;14.80;99.90;;;;;;5004521;28;20243;-80
2022/09/28 10:18:43;;;;;;;3.15;1.33;;;15.10;99.90;;;;;;4999294;28;20174;-80
2022/09/28 10:21:13;;;;;;;3.28;1.40;;;15.40;99.90;;;;;;4996061;28;20213;-80
2022/09/28 10:23:40;;;;;;;4.78;1.10;;;15.70;99.90;;;;;;4996888;28;20193;-79
2022/09/28 10:26:09;;;;;;;7.15;1.42;;;15.60;99.90;;;;;;4996654;28;20219;-82
2022/09/28 10:29:13;;;;;;;5.72;1.27;;;15.40;99.90;;;;;;5011169;28;20267;-80
2022/09/28 10:31:47;;;;;;;3.70;1.33;;;15.30;99.90;;;;;;4995301;28;20180;-84
2022/09/28 10:34:16;;;;;;;7.38;1.00;;;15.20;99.90;;;;;;5015651;28;20187;-80
2022/09/28 10:36:54;;;;;;;7.15;0.93;;;15.20;99.90;;;;;;5013892;28;20184;-88
2022/09/28 10:39:29;;;;;;;9.73;0.98;;;15.30;99.90;;;;;;5016237;28;20188;-80
2022/09/28 10:41:58;;;;;;;9.40;1.25;;;15.40;99.90;;;;;;5013909;28;20224;-80
2022/09/28 10:44:25;;;;;;;4.65;2.17;;;15.40;99.90;;;;;;5015686;28;20196;-81
2022/09/28 10:47:02;;;;;;;2.42;0.90;;;15.40;99.90;;;;;;5015016;28;20164;-81
2022/09/28 10:49:41;;;;;;;1.30;0.90;;;15.20;99.90;;;;;;5014024;28;20177;-81
2022/09/28 10:52:33;;;;;;;1.60;0.70;;;15.20;99.90;;;;;;5014794;28;20168;-82
2022/09/28 10:54:59;;;;;;;4.10;1.00;;;15.40;99.90;;;;;;5015129;28;20191;-83
2022/09/28 10:57:36;;;;;;;5.25;1.38;;;15.40;99.90;;;;;;5014990;28;20169;-79
2022/09/28 11:00:05;;;;;;;6.78;1.40;;;15.30;99.90;;;;;;5015017;28;20211;-82
2022/09/28 11:02:33;;;;;;;7.40;1.27;;;15.30;99.90;;;;;;5015405;28;20164;-88
2022/09/28 11:05:02;;;;;;;9.43;4.07;;;15.20;99.90;;;;;;5015389;28;20304;-83
2022/09/28 11:07:33;;;;;;;2.42;1.63;;;15.30;99.90;;;;;;5014867;28;20181;-83
2022/09/28 11:10:00;;;;;;;8.40;3.70;;;15.20;99.90;;;;;;5015136;28;20183;-80
2022/09/28 11:12:42;;;;;;;4.15;1.58;;;15.10;99.90;;;;;;5014979;28;20251;-78
2022/09/28 11:15:17;;;;;;;3.25;1.20;;;14.90;99.90;;;;;;5013866;28;20196;-79
2022/09/28 11:17:43;;;;;;;2.83;1.00;;;15.00;99.90;;;;;;5013059;28;20168;-78
2022/09/28 11:20:23;;;;;;;2.15;1.23;;;14.90;99.90;;;;;;5014083;28;20204;-79
2022/09/28 11:22:50;;;;;;;1.88;1.20;;;15.20;99.90;;;;;;5014089;28;20528;-79
2022/09/28 11:25:15;;;;;;;5.75;1.13;;;15.20;99.90;;;;;;5014752;28;20176;-79
2022/09/28 11:27:50;;;;;;;3.15;1.80;;;15.30;99.90;;;;;;5014890;28;20171;-81
2022/09/28 11:30:22;;;;;;;9.52;3.83;;;15.40;99.90;;;;;;5014762;28;20168;-80
2022/09/28 11:32:48;;;;;;;13.98;2.38;;;15.70;99.90;;;;;;5013202;28;20173;-82
2022/09/28 11:35:35;;;;;;;3.10;1.33;;;16.00;99.90;;;;;;5013867;28;20275;-82
2022/09/28 11:38:26;;;;;;;2.03;1.13;;;16.40;99.90;;;;;;5011811;28;20215;-88
2022/09/28 11:41:10;;;;;;;3.22;1.98;;;16.70;99.90;;;;;;5013192;28;20207;-80
2022/09/28 11:43:59;;;;;;;9.13;1.63;;;16.90;99.90;;;;;;5014156;28;20164;-82
2022/09/28 11:46:48;;;;;;;3.38;1.40;;;17.20;99.90;;;;;;4973652;28;20181;-81
2022/09/28 11:49:36;;;;;;;8.98;1.80;;;17.20;99.90;;;;;;4973471;28;20173;-80
2022/09/28 11:52:17;;;;;;;6.22;1.60;;;17.00;99.90;;;;;;4981566;28;20252;-79
2022/09/28 11:55:05;;;;;;;2.55;1.33;;;16.80;99.90;;;;;;4994364;28;20542;-79
2022/09/28 11:57:36;;;;;;;4.05;1.20;;;16.60;99.90;;;;;;5008676;28;20214;-80
2022/09/28 12:00:12;;;;;;;2.53;1.40;;;16.50;99.90;;;;;;4994346;28;20209;-82
2022/09/28 12:03:02;;;;;;;9.13;1.40;;;16.50;99.90;;;;;;4994313;28;20208;-79
2022/09/28 12:05:56;;;;;;;15.25;1.63;;;16.20;99.90;;;;;;5008229;28;20205;-80
2022/09/28 12:08:39;;;;;;;5.25;1.33;;;16.00;99.90;;;;;;4993977;28;20196;-83
2022/09/28 12:11:11;;;;;;;3.03;1.05;;;15.80;99.90;;;;;;4993925;28;20703;-79
2022/09/28 12:13:46;;;;;;;3.60;2.40;;;15.50;99.90;;;;;;4993233;28;20169;-78
2022/09/28 12:16:34;;;;;;;4.32;2.78;;;15.50;99.90;;;;;;5008609;28;20277;-79
2022/09/28 12:19:19;;;;;;;3.65;1.25;;;15.30;99.90;;;;;;4994677;28;20207;-79
2022/09/28 12:21:55;;;;;;;0.88;0.85;;;15.30;99.90;;;;;;4996221;28;20219;-84
2022/09/28 12:24:39;;;;;;;1.42;1.20;;;15.20;99.90;;;;;;4992996;28;20280;-82
2022/09/28 12:27:20;;;;;;;2.53;0.80;;;15.20;99.90;;;;;;5011153;28;20180;-82
2022/09/28 12:30:14;;;;;;;15.25;0.70;;;15.40;99.90;;;;;;5013219;28;20188;-86
2022/09/28 12:32:54;;;;;;;5.35;0.88;;;15.60;99.90;;;;;;4994886;28;20173;-86
2022/09/28 12:36:03;;;;;;;4.32;1.02;;;15.80;99.90;;;;;;4994430;28;20184;-85
2022/09/28 12:38:39;;;;;;;4.05;2.40;;;16.10;99.90;;;;;;4994743;28;20165;-79
2022/09/28 12:41:21;;;;;;;7.45;1.05;;;16.20;99.90;;;;;;5014334;28;20211;-87
2022/09/28 12:44:08;;;;;;;3.20;0.60;;;16.20;99.90;;;;;;4997148;28;20220;-88
2022/09/28 12:46:44;;;;;;;1.67;0.70;;;16.10;99.90;;;;;;4995297;28;20169;-84
2022/09/28 12:49:25;;;;;;;9.82;0.80;;;16.00;99.90;;;;;;4994088;28;20169;-80
2022/09/28 12:51:58;;;;;;;1.92;0.98;;;16.10;99.90;;;;;;4993909;28;20184;-80
2022/09/28 12:54:49;;;;;;;3.55;0.70;;;16.40;99.90;;;;;;4994184;28;20196;-85
2022/09/28 12:57:45;;;;;;;6.28;1.50;;;16.50;99.90;;;;;;4993785;28;20180;-78
2022/09/28 13:00:17;;;;;;;6.47;5.82;;;16.40;99.90;;;;;;4994591;28;20562;-82
2022/09/28 13:02:52;;;;;;;2.70;1.30;;;16.40;99.90;;;;;;4995483;28;20177;-80
2022/09/28 13:05:46;;;;;;;1.20;0.95;;;16.50;99.90;;;;;;4993527;28;20674;-80
2022/09/28 13:08:43;;;;;;;8.05;0.93;;;16.60;99.90;;;;;;4994099;28;20525;-80
2022/09/28 13:11:14;;;;;;;4.50;0.55;;;16.50;99.90;;;;;;4983073;28;20686;-78
2022/09/28 13:14:12;;;;;;;1.75;0.60;;;16.30;99.90;;;;;;4994655;28;20188;-78
2022/09/28 13:17:03;;;;;;;4.90;0.60;;;16.40;99.90;;;;;;4995164;28;20180;-80
2022/09/28 13:20:06;;;;;;;1.27;1.17;;;16.60;99.90;;;;;;4994297;28;20175;-79